Time;durP1;ratioP1;P1;durP2;ratioP2;P2;SDS_P1;SDS_P2;PMS_P1;PMS_P2;Temp;Humidity;BMP_temperature;BMP_pressure;BME280_temperature;BME280_humidity;BME280_pressure;Samples;Min_cycle;Max_cycle;Signal;HPM_P1;HPM_P2
2020/12/05 00:02:18;;;;;;;21.48;11.52;;;4.90;99.90;;;;;;5073382;28;20051;-77
2020/12/05 00:04:45;;;;;;;26.83;12.88;;;4.90;99.90;;;;;;5072190;28;20041;-77
2020/12/05 00:07:11;;;;;;;25.25;12.07;;;4.80;99.90;;;;;;5072234;28;20060;-77
2020/12/05 00:09:37;;;;;;;23.95;12.88;;;4.80;99.90;;;;;;5072258;28;20053;-77
2020/12/05 00:12:04;;;;;;;23.25;13.02;;;4.80;99.90;;;;;;5072075;28;20031;-77
2020/12/05 00:14:29;;;;;;;26.05;12.93;;;4.80;99.90;;;;;;5072174;28;20103;-77
2020/12/05 00:16:55;;;;;;;25.58;13.75;;;4.80;99.90;;;;;;5072813;28;20104;-77
2020/12/05 00:19:21;;;;;;;25.67;12.35;;;4.70;99.90;;;;;;5073359;28;20461;-77
2020/12/05 00:21:57;;;;;;;27.58;12.73;;;4.70;99.90;;;;;;5073421;28;20107;-77
2020/12/05 00:24:23;;;;;;;26.10;11.68;;;4.70;99.90;;;;;;5072863;28;20036;-77
2020/12/05 00:26:53;;;;;;;18.63;11.15;;;4.80;99.90;;;;;;5073175;28;20074;-77
2020/12/05 00:29:19;;;;;;;24.15;11.75;;;4.90;99.90;;;;;;5072059;28;20032;-77
2020/12/05 00:31:50;;;;;;;20.35;10.70;;;5.00;99.90;;;;;;5073053;28;20028;-77
2020/12/05 00:34:17;;;;;;;26.27;11.80;;;5.00;99.90;;;;;;5073091;28;20534;-77
2020/12/05 00:36:43;;;;;;;22.85;9.07;;;5.00;99.90;;;;;;5072730;28;20034;-77
2020/12/05 00:39:09;;;;;;;16.45;9.45;;;5.10;99.90;;;;;;5071745;28;20107;-77
2020/12/05 00:41:34;;;;;;;20.20;10.57;;;5.10;99.90;;;;;;5072972;28;20134;-77
2020/12/05 00:44:00;;;;;;;19.10;10.73;;;5.20;99.90;;;;;;5072918;28;20099;-77
2020/12/05 00:46:26;;;;;;;21.60;10.40;;;5.20;99.90;;;;;;5071612;28;20024;-77
2020/12/05 00:48:51;;;;;;;20.83;10.15;;;5.20;99.90;;;;;;5072874;28;20017;-77
2020/12/05 00:51:17;;;;;;;20.70;10.15;;;5.20;99.90;;;;;;5072853;28;20505;-77
2020/12/05 00:53:42;;;;;;;19.38;10.48;;;5.20;99.90;;;;;;5071551;28;20021;-77
2020/12/05 00:56:08;;;;;;;19.27;9.93;;;5.20;99.90;;;;;;5072850;28;20032;-77
2020/12/05 00:58:36;;;;;;;20.25;10.25;;;5.10;99.90;;;;;;5072798;28;20110;-77
2020/12/05 01:01:04;;;;;;;18.75;11.07;;;5.10;99.90;;;;;;5072803;28;20025;-77
2020/12/05 01:03:30;;;;;;;20.23;10.68;;;5.00;99.90;;;;;;5071273;28;20052;-77
2020/12/05 01:05:56;;;;;;;20.52;10.73;;;5.00;99.90;;;;;;5071336;28;20503;-77
2020/12/05 01:08:22;;;;;;;24.85;11.30;;;4.90;99.90;;;;;;5072707;28;20420;-77
2020/12/05 01:10:48;;;;;;;22.02;9.77;;;4.90;99.90;;;;;;5072636;28;20032;-77
2020/12/05 01:13:14;;;;;;;20.90;9.88;;;4.80;99.90;;;;;;5071361;28;20082;-77
2020/12/05 01:15:40;;;;;;;21.27;10.23;;;4.90;99.90;;;;;;5072715;28;20021;-77
2020/12/05 01:18:05;;;;;;;18.17;9.40;;;5.00;99.90;;;;;;5072480;28;20025;-77
2020/12/05 01:20:31;;;;;;;18.40;9.10;;;5.00;99.90;;;;;;5071355;28;20020;-77
2020/12/05 01:22:56;;;;;;;21.55;10.23;;;5.10;99.90;;;;;;5072412;28;20059;-77
2020/12/05 01:25:22;;;;;;;19.48;9.85;;;5.10;99.90;;;;;;5072513;28;20605;-77
2020/12/05 01:27:48;;;;;;;20.20;10.35;;;5.10;99.90;;;;;;5072488;28;20028;-77
2020/12/05 01:30:13;;;;;;;16.65;8.75;;;5.10;99.90;;;;;;5070871;28;20020;-77
2020/12/05 01:32:39;;;;;;;18.55;10.85;;;5.10;99.90;;;;;;5072414;28;20025;-77
2020/12/05 01:35:05;;;;;;;20.55;10.45;;;5.10;99.90;;;;;;5071153;28;20035;-77
2020/12/05 01:37:31;;;;;;;17.02;9.63;;;5.10;99.90;;;;;;5072500;28;20031;-77
2020/12/05 01:39:57;;;;;;;18.60;9.93;;;5.10;99.90;;;;;;5072404;28;20024;-77
2020/12/05 01:42:23;;;;;;;16.95;9.60;;;5.10;99.90;;;;;;5075621;28;20043;-77
2020/12/05 01:44:49;;;;;;;19.10;10.15;;;5.10;99.90;;;;;;5074886;28;20040;-77
2020/12/05 01:47:15;;;;;;;19.17;10.18;;;5.10;99.90;;;;;;5076175;28;20029;-77
2020/12/05 01:49:41;;;;;;;20.35;10.27;;;5.10;99.90;;;;;;5076245;28;20530;-77
2020/12/05 01:52:07;;;;;;;17.33;9.60;;;5.10;99.90;;;;;;5076099;28;20078;-77
2020/12/05 01:54:32;;;;;;;16.13;9.40;;;5.10;99.90;;;;;;5076238;28;20029;-77
2020/12/05 01:57:02;;;;;;;22.02;9.90;;;5.10;99.90;;;;;;5076256;28;20029;-77
2020/12/05 01:59:28;;;;;;;14.48;8.32;;;5.20;99.90;;;;;;5074692;28;20093;-77
2020/12/05 02:02:01;;;;;;;17.98;9.50;;;5.30;99.90;;;;;;5075635;28;20474;-77
2020/12/05 02:04:28;;;;;;;16.00;10.27;;;5.40;99.90;;;;;;5074579;28;20044;-77
2020/12/05 02:07:15;;;;;;;16.95;8.90;;;5.50;99.90;;;;;;5074456;28;20020;-77
2020/12/05 02:09:49;;;;;;;18.20;9.05;;;5.60;99.90;;;;;;5075861;28;20025;-77
2020/12/05 02:12:26;;;;;;;19.13;10.02;;;5.60;99.90;;;;;;5074455;28;20024;-77
2020/12/05 02:14:59;;;;;;;13.43;8.50;;;5.60;99.90;;;;;;5074110;28;20025;-78
2020/12/05 02:17:25;;;;;;;14.38;8.48;;;5.70;99.90;;;;;;5074192;28;20025;-77
2020/12/05 02:19:55;;;;;;;14.88;8.25;;;5.80;99.90;;;;;;5075631;28;20435;-77
2020/12/05 02:22:37;;;;;;;17.85;7.47;;;5.90;99.90;;;;;;5075435;28;20525;-77
2020/12/05 02:25:03;;;;;;;17.00;8.33;;;5.90;99.90;;;;;;5075538;28;20064;-77
2020/12/05 02:27:33;;;;;;;16.02;8.48;;;6.00;99.90;;;;;;5075393;28;20055;-77
2020/12/05 02:29:59;;;;;;;15.00;8.88;;;6.00;99.90;;;;;;5073772;28;20370;-77
2020/12/05 02:32:25;;;;;;;16.15;8.98;;;6.10;99.90;;;;;;5075122;28;20050;-77
2020/12/05 02:34:50;;;;;;;13.68;8.75;;;6.00;99.90;;;;;;5073775;28;20159;-77
2020/12/05 02:37:22;;;;;;;17.00;8.77;;;6.00;99.90;;;;;;5073506;28;20141;-78
2020/12/05 02:39:48;;;;;;;18.67;10.15;;;6.10;99.90;;;;;;5074019;28;20028;-77
2020/12/05 02:42:15;;;;;;;21.77;10.10;;;6.10;99.90;;;;;;5075078;28;20074;-77
2020/12/05 02:44:48;;;;;;;14.25;8.15;;;6.10;99.90;;;;;;5075411;28;20028;-77
2020/12/05 02:47:14;;;;;;;16.38;9.13;;;6.10;99.90;;;;;;5073882;28;20032;-77
2020/12/05 02:49:40;;;;;;;16.85;9.30;;;6.10;99.90;;;;;;5075102;28;20017;-77
2020/12/05 02:52:06;;;;;;;17.58;9.07;;;6.10;99.90;;;;;;5074960;28;20023;-77
2020/12/05 02:54:32;;;;;;;22.92;10.90;;;6.20;99.90;;;;;;5075142;28;20389;-77
2020/12/05 02:56:59;;;;;;;16.85;9.68;;;6.20;99.90;;;;;;5074498;28;20462;-77
2020/12/05 02:59:28;;;;;;;18.17;9.20;;;6.10;99.90;;;;;;5073699;28;20031;-77
2020/12/05 03:01:54;;;;;;;15.43;9.52;;;6.20;99.90;;;;;;5074463;28;20028;-77
2020/12/05 03:04:20;;;;;;;17.40;9.00;;;6.20;99.90;;;;;;5074697;28;20070;-77
2020/12/05 03:06:46;;;;;;;18.10;9.60;;;6.20;99.90;;;;;;5073473;28;20546;-77
2020/12/05 03:09:12;;;;;;;15.65;9.45;;;6.10;99.90;;;;;;5074670;28;20030;-77
2020/12/05 03:11:37;;;;;;;18.08;9.43;;;6.10;99.90;;;;;;5074645;28;20074;-77
2020/12/05 03:14:03;;;;;;;19.67;9.70;;;6.10;99.90;;;;;;5074615;28;20032;-77
2020/12/05 03:16:29;;;;;;;17.20;9.07;;;6.10;99.90;;;;;;5074403;28;20039;-77
2020/12/05 03:18:54;;;;;;;16.35;8.95;;;6.00;99.90;;;;;;5074546;28;20096;-77
2020/12/05 03:21:20;;;;;;;16.00;9.07;;;6.00;99.90;;;;;;5074610;28;20032;-77
2020/12/05 03:23:46;;;;;;;20.42;10.43;;;6.00;99.90;;;;;;5074212;28;20040;-77
2020/12/05 03:26:13;;;;;;;17.80;8.95;;;5.90;99.90;;;;;;5074046;28;20033;-77
2020/12/05 03:28:39;;;;;;;18.83;9.88;;;5.90;99.90;;;;;;5074119;28;20024;-77
2020/12/05 03:31:05;;;;;;;15.10;8.82;;;5.90;99.90;;;;;;5072970;28;20021;-77
2020/12/05 03:33:32;;;;;;;14.10;9.68;;;5.90;99.90;;;;;;5074205;28;20024;-77
2020/12/05 03:35:58;;;;;;;18.45;9.95;;;5.90;99.90;;;;;;5072821;28;20055;-77
2020/12/05 03:38:24;;;;;;;15.45;8.98;;;5.90;99.90;;;;;;5074148;28;20055;-77
2020/12/05 03:40:49;;;;;;;14.25;8.55;;;5.90;99.90;;;;;;5074122;28;20541;-77
2020/12/05 03:43:15;;;;;;;15.48;8.10;;;5.90;99.90;;;;;;5074013;28;20039;-77
2020/12/05 03:45:40;;;;;;;19.13;10.32;;;5.80;99.90;;;;;;5073926;28;20031;-77
2020/12/05 03:48:06;;;;;;;17.42;9.45;;;5.70;99.90;;;;;;5073843;28;20470;-77
2020/12/05 03:50:32;;;;;;;17.58;8.93;;;5.70;99.90;;;;;;5072662;28;20074;-78
2020/12/05 03:52:57;;;;;;;18.67;9.40;;;5.70;99.90;;;;;;5073744;28;20031;-77
2020/12/05 03:55:23;;;;;;;14.23;8.43;;;5.60;99.90;;;;;;5072559;28;20039;-77
2020/12/05 03:57:49;;;;;;;12.93;8.00;;;5.60;99.90;;;;;;5073368;28;20024;-77
2020/12/05 04:00:14;;;;;;;18.00;9.68;;;5.60;99.90;;;;;;5072187;28;20020;-78
2020/12/05 04:02:40;;;;;;;17.10;9.25;;;5.60;99.90;;;;;;5072279;28;20024;-77
2020/12/05 04:05:06;;;;;;;16.20;9.30;;;5.50;99.90;;;;;;5071330;28;20036;-77
2020/12/05 04:07:31;;;;;;;17.00;9.45;;;5.50;99.90;;;;;;5073564;28;20024;-77
2020/12/05 04:09:57;;;;;;;16.08;8.75;;;5.50;99.90;;;;;;5073568;28;20100;-77
2020/12/05 04:12:22;;;;;;;17.63;9.57;;;5.60;99.90;;;;;;5072160;28;20480;-77
2020/12/05 04:14:48;;;;;;;16.23;8.73;;;5.60;99.90;;;;;;5073540;28;20021;-77
2020/12/05 04:17:14;;;;;;;16.08;8.65;;;5.60;99.90;;;;;;5072025;28;20035;-77
2020/12/05 04:19:39;;;;;;;16.98;9.20;;;5.60;99.90;;;;;;5072087;28;20381;-77
2020/12/05 04:22:05;;;;;;;15.80;8.20;;;5.60;99.90;;;;;;5073487;28;20110;-77
2020/12/05 04:24:31;;;;;;;19.00;10.05;;;5.60;99.90;;;;;;5073341;28;20393;-77
2020/12/05 04:26:56;;;;;;;14.82;9.02;;;5.70;99.90;;;;;;5073137;28;20020;-77
2020/12/05 04:29:22;;;;;;;17.90;8.60;;;5.70;99.90;;;;;;5073029;28;20485;-77
2020/12/05 04:31:47;;;;;;;16.05;8.57;;;5.70;99.90;;;;;;5073108;28;20092;-77
2020/12/05 04:34:13;;;;;;;17.75;8.88;;;5.70;99.90;;;;;;5073130;28;20111;-77
2020/12/05 04:36:39;;;;;;;13.65;8.30;;;5.70;99.90;;;;;;5071818;28;20066;-77
2020/12/05 04:39:04;;;;;;;18.65;10.07;;;5.70;99.90;;;;;;5073098;28;20029;-77
2020/12/05 04:41:30;;;;;;;15.48;9.18;;;5.70;99.90;;;;;;5072984;28;20017;-77
2020/12/05 04:43:56;;;;;;;16.50;8.73;;;5.70;99.90;;;;;;5072976;28;20027;-77
2020/12/05 04:46:22;;;;;;;17.33;9.13;;;5.70;99.90;;;;;;5072921;28;20039;-77
2020/12/05 04:48:51;;;;;;;15.82;9.05;;;5.60;99.90;;;;;;5072577;28;20028;-77
2020/12/05 04:51:21;;;;;;;18.63;10.38;;;5.60;99.90;;;;;;5072851;28;20502;-77
2020/12/05 04:53:47;;;;;;;16.92;9.50;;;5.50;99.90;;;;;;5071552;28;20031;-77
2020/12/05 04:56:14;;;;;;;17.33;10.27;;;5.50;99.90;;;;;;5072869;28;20081;-77
2020/12/05 04:58:48;;;;;;;20.90;10.27;;;5.50;99.90;;;;;;5072838;28;20513;-77
2020/12/05 05:01:18;;;;;;;17.70;9.00;;;5.50;99.90;;;;;;5071499;28;20040;-77
2020/12/05 05:03:44;;;;;;;16.42;9.35;;;5.40;99.90;;;;;;5071448;28;20032;-77
2020/12/05 05:06:18;;;;;;;19.30;10.70;;;5.40;99.90;;;;;;5072688;28;20394;-77
2020/12/05 05:08:46;;;;;;;18.58;10.27;;;5.40;99.90;;;;;;5072727;28;20043;-77
2020/12/05 05:11:14;;;;;;;19.70;10.68;;;5.30;99.90;;;;;;5072764;28;20048;-77
2020/12/05 05:13:52;;;;;;;19.35;10.25;;;5.20;99.90;;;;;;5071410;28;20024;-77
2020/12/05 05:16:18;;;;;;;21.42;10.63;;;5.20;99.90;;;;;;5075957;28;20027;-77
2020/12/05 05:18:44;;;;;;;22.63;11.25;;;5.20;99.90;;;;;;5075751;28;20024;-77
2020/12/05 05:21:14;;;;;;;20.00;10.90;;;5.10;99.90;;;;;;5074947;28;20040;-77
2020/12/05 05:23:43;;;;;;;20.38;10.52;;;5.10;99.90;;;;;;5076789;28;20091;-77
2020/12/05 05:26:08;;;;;;;24.13;12.27;;;5.00;99.90;;;;;;5076622;28;20494;-77
2020/12/05 05:28:38;;;;;;;21.23;10.38;;;5.00;99.90;;;;;;5075287;28;20059;-77
2020/12/05 05:33:53;;;;;;;23.33;11.68;;;5.00;99.90;;;;;;5076598;28;20039;-77
2020/12/05 05:36:26;;;;;;;17.88;10.30;;;5.00;99.90;;;;;;5076081;28;20025;-77
2020/12/05 05:39:03;;;;;;;21.67;11.02;;;5.00;99.90;;;;;;5076189;28;20021;-77
2020/12/05 05:41:29;;;;;;;24.77;12.90;;;4.90;99.90;;;;;;5074625;28;20021;-77
2020/12/05 05:44:03;;;;;;;19.25;10.50;;;4.90;99.90;;;;;;5074020;28;20021;-77
2020/12/05 05:46:35;;;;;;;23.08;12.60;;;4.80;99.90;;;;;;5074907;28;20102;-77
2020/12/05 05:49:02;;;;;;;21.23;11.90;;;4.90;99.90;;;;;;5075053;28;20059;-77
2020/12/05 05:51:47;;;;;;;23.52;13.15;;;5.00;99.90;;;;;;5074917;28;20527;-77
2020/12/05 05:54:12;;;;;;;20.10;11.15;;;5.10;99.90;;;;;;5075822;28;20074;-77
2020/12/05 05:56:38;;;;;;;27.73;13.40;;;5.20;99.90;;;;;;5075361;28;20013;-77
2020/12/05 05:59:06;;;;;;;21.90;11.02;;;5.20;99.90;;;;;;5074090;28;20439;-77
2020/12/05 06:01:37;;;;;;;16.90;9.50;;;5.20;99.90;;;;;;5075590;28;20023;-77
2020/12/05 06:04:04;;;;;;;18.67;10.52;;;5.20;99.90;;;;;;5075974;28;20074;-77
2020/12/05 06:06:33;;;;;;;21.52;11.40;;;5.20;99.90;;;;;;5075158;28;20438;-77
2020/12/05 06:09:03;;;;;;;17.60;9.25;;;5.20;99.90;;;;;;5074040;28;20515;-77
2020/12/05 06:11:33;;;;;;;25.77;12.45;;;5.20;99.90;;;;;;5074649;28;20066;-77
2020/12/05 06:14:02;;;;;;;21.33;10.55;;;5.20;99.90;;;;;;5074338;28;20029;-77
2020/12/05 06:16:28;;;;;;;22.27;11.18;;;5.20;99.90;;;;;;5073735;28;20055;-77
2020/12/05 06:18:56;;;;;;;22.58;10.90;;;5.30;99.90;;;;;;5074389;28;20032;-77
2020/12/05 06:21:31;;;;;;;22.52;12.27;;;5.30;99.90;;;;;;5075302;28;20397;-77
2020/12/05 06:24:03;;;;;;;18.65;11.85;;;5.30;99.90;;;;;;5074096;28;20013;-77
2020/12/05 06:26:32;;;;;;;22.42;12.52;;;5.30;99.90;;;;;;5074564;28;20123;-78
2020/12/05 06:29:00;;;;;;;23.55;11.82;;;5.30;99.90;;;;;;5075316;28;20024;-78
2020/12/05 06:31:46;;;;;;;25.35;13.15;;;5.30;99.90;;;;;;5073993;28;20046;-77
2020/12/05 06:34:33;;;;;;;21.50;11.48;;;5.30;99.90;;;;;;5073723;28;20490;-77
2020/12/05 06:36:59;;;;;;;24.50;12.65;;;5.40;99.90;;;;;;5075400;28;20021;-77
2020/12/05 06:39:25;;;;;;;22.83;11.27;;;5.40;99.90;;;;;;5075260;28;20067;-78
2020/12/05 06:41:52;;;;;;;28.20;13.25;;;5.40;99.90;;;;;;5074370;28;20024;-78
2020/12/05 06:44:30;;;;;;;20.00;10.65;;;5.40;99.90;;;;;;5073623;28;20019;-78
2020/12/05 06:46:58;;;;;;;23.20;13.35;;;5.40;99.90;;;;;;5073522;28;20123;-78
2020/12/05 06:49:39;;;;;;;22.10;12.07;;;5.50;99.90;;;;;;5075151;28;20020;-78
2020/12/05 06:52:23;;;;;;;21.85;11.23;;;5.50;99.90;;;;;;5072914;28;20504;-77
2020/12/05 06:54:57;;;;;;;21.02;10.95;;;5.50;99.90;;;;;;5073689;28;20055;-78
2020/12/05 06:57:25;;;;;;;20.40;10.98;;;5.60;99.90;;;;;;5072794;28;20422;-78
2020/12/05 06:59:51;;;;;;;22.27;11.57;;;5.60;99.90;;;;;;5068792;28;20489;-78
2020/12/05 07:02:35;;;;;;;19.45;11.15;;;5.70;99.90;;;;;;5068400;28;20029;-77
2020/12/05 07:05:19;;;;;;;18.48;10.32;;;5.70;99.90;;;;;;5072205;28;20028;-78
2020/12/05 07:07:52;;;;;;;19.77;11.10;;;5.80;99.90;;;;;;5069232;28;20258;-77
2020/12/05 07:10:21;;;;;;;21.80;10.38;;;5.80;99.90;;;;;;5064458;28;20251;-78
2020/12/05 07:12:47;;;;;;;23.20;10.93;;;5.80;99.90;;;;;;5061518;28;20104;-77
2020/12/05 07:15:31;;;;;;;20.30;10.90;;;5.90;99.90;;;;;;5071637;28;20021;-77
2020/12/05 07:17:58;;;;;;;25.02;11.68;;;6.00;99.90;;;;;;5072346;28;20021;-78
2020/12/05 07:20:25;;;;;;;23.52;12.32;;;6.00;99.90;;;;;;5066587;28;20031;-78
2020/12/05 07:22:55;;;;;;;20.65;10.95;;;6.00;99.90;;;;;;5066806;28;20082;-78
2020/12/05 07:25:22;;;;;;;22.38;10.88;;;6.10;99.90;;;;;;5068566;28;20035;-78
2020/12/05 07:27:48;;;;;;;29.52;12.20;;;6.10;99.90;;;;;;5072998;28;20016;-78
2020/12/05 07:30:14;;;;;;;22.88;11.90;;;6.20;99.90;;;;;;5071554;28;20090;-78
2020/12/05 07:32:42;;;;;;;23.23;12.35;;;6.20;99.90;;;;;;5072409;28;20047;-78
2020/12/05 07:35:15;;;;;;;21.45;11.52;;;6.30;99.90;;;;;;5071748;28;20112;-78
2020/12/05 07:37:41;;;;;;;23.52;12.00;;;6.30;99.90;;;;;;5065243;28;20117;-79
2020/12/05 07:40:07;;;;;;;22.45;12.07;;;6.40;99.90;;;;;;5067889;28;20028;-79
2020/12/05 07:42:38;;;;;;;21.02;11.18;;;6.40;99.90;;;;;;5068137;28;20063;-79
2020/12/05 07:45:06;;;;;;;23.10;11.02;;;6.50;99.90;;;;;;5068693;28;20048;-78
2020/12/05 07:47:32;;;;;;;24.58;11.57;;;6.60;99.90;;;;;;5066831;28;20051;-79
2020/12/05 07:49:59;;;;;;;21.77;11.20;;;6.50;99.90;;;;;;5064784;28;20064;-78
2020/12/05 07:52:25;;;;;;;21.85;12.10;;;6.60;99.90;;;;;;5065633;28;20500;-78
2020/12/05 07:54:55;;;;;;;28.13;13.52;;;6.60;99.90;;;;;;5068469;28;20020;-78
2020/12/05 07:57:26;;;;;;;25.23;11.95;;;6.60;99.90;;;;;;5070058;28;20111;-78
2020/12/05 08:00:00;;;;;;;25.98;13.00;;;6.60;99.90;;;;;;5068853;28;20028;-79
2020/12/05 08:02:40;;;;;;;21.92;12.07;;;6.60;99.90;;;;;;5070350;28;20409;-79
2020/12/05 08:05:29;;;;;;;25.10;11.85;;;6.60;99.90;;;;;;5070432;28;20063;-78
2020/12/05 08:08:01;;;;;;;24.98;12.85;;;6.70;99.90;;;;;;5069662;28;20020;-79
2020/12/05 08:10:29;;;;;;;22.52;12.60;;;6.70;99.90;;;;;;5069226;28;20039;-78
2020/12/05 08:13:17;;;;;;;20.35;10.57;;;6.70;99.90;;;;;;5068420;28;20490;-78
2020/12/05 08:15:44;;;;;;;22.63;12.15;;;6.70;99.90;;;;;;5068659;28;20041;-79
2020/12/05 08:18:10;;;;;;;22.42;12.13;;;6.80;99.90;;;;;;5069584;28;20024;-79
2020/12/05 08:20:44;;;;;;;22.58;12.00;;;6.80;99.90;;;;;;5066712;28;20558;-78
2020/12/05 08:23:28;;;;;;;20.85;11.00;;;6.80;99.90;;;;;;5066477;28;20024;-78
2020/12/05 08:26:02;;;;;;;24.25;11.75;;;6.90;99.90;;;;;;5076779;28;20041;-78
2020/12/05 08:28:31;;;;;;;19.63;10.07;;;6.90;99.90;;;;;;5070688;28;20044;-78
2020/12/05 08:31:05;;;;;;;17.88;10.65;;;6.90;99.90;;;;;;5072752;28;20074;-78
2020/12/05 08:33:31;;;;;;;26.13;12.23;;;7.00;99.90;;;;;;5073379;28;20017;-79
2020/12/05 08:35:57;;;;;;;25.55;13.57;;;7.00;99.90;;;;;;5070130;28;20108;-79
2020/12/05 08:38:25;;;;;;;22.77;12.88;;;7.00;99.90;;;;;;5071141;28;20052;-79
2020/12/05 08:41:01;;;;;;;21.95;11.43;;;7.00;99.90;;;;;;5071020;28;20043;-79
2020/12/05 08:43:30;;;;;;;19.58;11.90;;;7.00;99.90;;;;;;5071403;28;20046;-78
2020/12/05 08:45:56;;;;;;;23.90;12.65;;;7.00;99.90;;;;;;5070754;28;20036;-79
2020/12/05 08:48:23;;;;;;;23.92;10.88;;;7.10;99.90;;;;;;5068220;28;20436;-79
2020/12/05 08:50:48;;;;;;;21.90;11.43;;;7.10;99.90;;;;;;5069430;28;20405;-79
2020/12/05 08:53:19;;;;;;;23.08;12.10;;;7.10;99.90;;;;;;5068158;28;20024;-78
2020/12/05 08:55:47;;;;;;;20.98;10.98;;;7.10;99.90;;;;;;5067682;28;20126;-78
2020/12/05 08:58:13;;;;;;;20.33;11.25;;;7.20;99.90;;;;;;5066655;28;20031;-78
2020/12/05 09:00:38;;;;;;;29.13;13.30;;;7.20;99.90;;;;;;5068094;28;20024;-79
2020/12/05 09:03:17;;;;;;;27.02;12.23;;;7.30;99.90;;;;;;5067729;28;20031;-79
2020/12/05 09:05:47;;;;;;;28.23;14.45;;;7.30;99.90;;;;;;5069367;28;20033;-78
2020/12/05 09:08:19;;;;;;;24.55;11.60;;;7.40;99.90;;;;;;5067639;28;20036;-78
2020/12/05 09:10:45;;;;;;;24.10;12.63;;;7.40;99.90;;;;;;5068435;28;20091;-78
2020/12/05 09:13:10;;;;;;;22.20;10.60;;;7.40;99.90;;;;;;5071149;28;20126;-79
2020/12/05 09:15:36;;;;;;;23.30;12.23;;;7.50;99.90;;;;;;5072832;28;20052;-78
2020/12/05 09:18:02;;;;;;;22.38;11.80;;;7.50;99.90;;;;;;5072616;28;20100;-78
2020/12/05 09:20:28;;;;;;;19.23;10.10;;;7.60;99.90;;;;;;5072801;28;20028;-79
2020/12/05 09:22:59;;;;;;;22.52;12.05;;;7.60;99.90;;;;;;5072310;28;20090;-78
2020/12/05 09:25:36;;;;;;;20.58;11.57;;;7.70;99.90;;;;;;5072615;28;20053;-78
2020/12/05 09:28:09;;;;;;;20.85;11.32;;;7.80;99.90;;;;;;5068917;28;20140;-78
2020/12/05 09:30:34;;;;;;;15.85;10.40;;;7.80;99.90;;;;;;5067930;28;20138;-78
2020/12/05 09:33:11;;;;;;;22.25;11.13;;;7.80;99.90;;;;;;5067031;28;20102;-79
2020/12/05 09:35:37;;;;;;;19.98;10.30;;;7.90;99.90;;;;;;5063475;28;20024;-79
2020/12/05 09:38:03;;;;;;;21.00;11.48;;;7.90;99.90;;;;;;5065162;28;20136;-79
2020/12/05 09:40:30;;;;;;;17.30;9.57;;;7.90;99.90;;;;;;5065514;28;20449;-79
2020/12/05 09:42:56;;;;;;;19.85;12.02;;;8.00;99.90;;;;;;5067258;28;20048;-79
2020/12/05 09:45:22;;;;;;;18.77;10.68;;;8.00;99.90;;;;;;5067980;28;20036;-78
2020/12/05 09:47:48;;;;;;;22.08;10.68;;;8.10;99.90;;;;;;5066227;28;20020;-79
2020/12/05 09:50:14;;;;;;;18.40;11.40;;;8.10;99.90;;;;;;5065280;28;20557;-79
2020/12/05 09:52:41;;;;;;;21.33;10.23;;;8.10;99.90;;;;;;5065378;28;20028;-78
2020/12/05 09:55:06;;;;;;;20.70;10.05;;;8.10;99.90;;;;;;5067204;28;20021;-79
2020/12/05 09:57:33;;;;;;;21.10;11.45;;;8.20;99.90;;;;;;5068017;28;20028;-78
2020/12/05 09:59:59;;;;;;;24.23;11.70;;;8.20;99.90;;;;;;5086845;28;20016;-79
2020/12/05 10:02:25;;;;;;;20.75;11.65;;;8.20;99.50;;;;;;5081255;28;20029;-78
2020/12/05 10:04:50;;;;;;;21.77;10.32;;;8.20;99.80;;;;;;5092270;28;20047;-78
2020/12/05 10:07:16;;;;;;;18.50;10.73;;;8.30;99.20;;;;;;5077857;28;20113;-79
2020/12/05 10:09:42;;;;;;;18.58;10.23;;;8.30;99.10;;;;;;5073152;28;20052;-78
2020/12/05 10:12:08;;;;;;;20.65;10.93;;;8.30;98.80;;;;;;5073089;28;20104;-78
2020/12/05 10:14:33;;;;;;;24.08;11.90;;;8.40;98.70;;;;;;5071021;28;20140;-78
2020/12/05 10:16:59;;;;;;;19.30;11.60;;;8.40;97.80;;;;;;5065976;28;20516;-78
2020/12/05 10:19:26;;;;;;;19.15;9.60;;;8.50;97.00;;;;;;5066904;28;20024;-78
2020/12/05 10:21:52;;;;;;;21.08;10.43;;;8.50;97.00;;;;;;5071331;28;20043;-78
2020/12/05 10:24:19;;;;;;;19.73;10.50;;;8.70;95.70;;;;;;5071574;28;20028;-78
2020/12/05 10:26:55;;;;;;;19.08;9.45;;;8.70;95.90;;;;;;5072460;28;20024;-78
2020/12/05 10:29:21;;;;;;;17.35;10.13;;;8.70;94.40;;;;;;5056290;28;20500;-78
2020/12/05 10:31:49;;;;;;;19.27;10.55;;;8.80;94.10;;;;;;5054685;28;20025;-79
2020/12/05 10:34:15;;;;;;;19.58;11.23;;;8.90;94.70;;;;;;5055506;28;20489;-78
2020/12/05 10:36:41;;;;;;;20.08;10.38;;;8.90;93.30;;;;;;5054247;28;20021;-78
2020/12/05 10:39:08;;;;;;;16.20;9.85;;;9.00;92.10;;;;;;5055438;28;20022;-78
2020/12/05 10:41:36;;;;;;;20.13;10.30;;;9.00;91.90;;;;;;5052684;28;20496;-78
2020/12/05 10:44:03;;;;;;;17.60;9.88;;;9.10;92.10;;;;;;5054945;28;20047;-78
2020/12/05 10:46:29;;;;;;;21.17;11.68;;;9.10;91.70;;;;;;5054968;28;20033;-78
2020/12/05 10:48:55;;;;;;;21.05;11.43;;;9.20;92.40;;;;;;5053951;28;20021;-78
2020/12/05 10:51:21;;;;;;;23.88;11.38;;;9.20;93.00;;;;;;5055277;28;20466;-79
2020/12/05 10:53:47;;;;;;;22.90;11.30;;;9.20;92.40;;;;;;5054819;28;20017;-79
2020/12/05 10:56:13;;;;;;;17.13;9.77;;;9.20;91.80;;;;;;5074375;28;20469;-78
2020/12/05 10:58:38;;;;;;;26.30;10.40;;;9.30;91.40;;;;;;5073856;28;20021;-78
2020/12/05 11:01:04;;;;;;;16.88;9.90;;;9.30;91.20;;;;;;5075102;28;20474;-78
2020/12/05 11:03:30;;;;;;;19.02;11.13;;;9.40;91.80;;;;;;5073721;28;20537;-78
2020/12/05 11:05:55;;;;;;;19.52;10.88;;;9.40;90.30;;;;;;5073558;28;20490;-78
2020/12/05 11:08:21;;;;;;;19.88;11.32;;;9.40;91.40;;;;;;5074932;28;20052;-78
2020/12/05 11:10:47;;;;;;;22.38;11.52;;;9.50;91.40;;;;;;5072089;28;20020;-78
2020/12/05 11:13:12;;;;;;;19.70;10.75;;;9.50;91.50;;;;;;5074444;28;20028;-78
2020/12/05 11:15:39;;;;;;;28.13;14.15;;;9.50;90.50;;;;;;5074507;28;20462;-78
2020/12/05 11:18:06;;;;;;;27.55;13.75;;;9.50;90.20;;;;;;5071547;28;20105;-78
2020/12/05 11:20:31;;;;;;;25.13;14.02;;;9.60;90.40;;;;;;5073891;28;20020;-78
2020/12/05 11:22:57;;;;;;;42.40;23.98;;;9.60;91.00;;;;;;5074333;28;20029;-78
2020/12/05 11:25:22;;;;;;;30.45;16.77;;;9.60;90.90;;;;;;5074150;28;20111;-78
2020/12/05 11:27:48;;;;;;;23.00;12.95;;;9.60;90.70;;;;;;5074460;28;20024;-79
2020/12/05 11:30:14;;;;;;;23.02;12.68;;;9.70;89.80;;;;;;5074690;28;20107;-78
2020/12/05 11:32:40;;;;;;;17.67;10.65;;;9.70;91.50;;;;;;5074471;28;20119;-79
2020/12/05 11:35:06;;;;;;;20.27;11.73;;;9.60;92.30;;;;;;5073867;28;20482;-78
2020/12/05 11:37:32;;;;;;;17.30;11.15;;;9.60;91.90;;;;;;5071871;28;20021;-78
2020/12/05 11:39:58;;;;;;;19.02;10.60;;;9.70;91.90;;;;;;5074058;28;20458;-79
2020/12/05 11:42:27;;;;;;;16.60;9.32;;;9.70;92.40;;;;;;5073939;28;20024;-79
2020/12/05 11:44:54;;;;;;;20.23;9.98;;;9.70;92.40;;;;;;5073829;28;20036;-78
2020/12/05 11:47:20;;;;;;;16.38;8.88;;;9.60;91.30;;;;;;5072908;28;20082;-78
2020/12/05 11:49:45;;;;;;;17.95;10.45;;;9.60;91.10;;;;;;5073582;28;20416;-78
2020/12/05 11:52:11;;;;;;;20.92;10.35;;;9.60;91.20;;;;;;5073549;28;20016;-78
2020/12/05 11:54:37;;;;;;;19.92;10.68;;;9.70;90.50;;;;;;5073533;28;20020;-78
2020/12/05 11:57:02;;;;;;;17.38;10.30;;;9.70;90.70;;;;;;5071877;28;20070;-78
2020/12/05 11:59:28;;;;;;;17.38;9.82;;;9.70;91.00;;;;;;5073467;28;20029;-78
2020/12/05 12:01:54;;;;;;;20.55;11.48;;;9.60;90.40;;;;;;5072228;28;20032;-78
2020/12/05 12:04:20;;;;;;;18.27;11.40;;;9.70;92.80;;;;;;5072463;28;20020;-78
2020/12/05 12:06:45;;;;;;;20.33;10.75;;;9.60;93.90;;;;;;5073507;28;20046;-78
2020/12/05 12:09:11;;;;;;;25.65;12.10;;;9.60;93.60;;;;;;5073712;28;20490;-78
2020/12/05 12:11:36;;;;;;;26.92;14.38;;;9.60;93.90;;;;;;5072351;28;20105;-78
2020/12/05 12:14:02;;;;;;;26.40;15.48;;;9.60;94.30;;;;;;5073126;28;20020;-78
2020/12/05 12:16:27;;;;;;;31.30;17.08;;;9.60;94.60;;;;;;5071743;28;20025;-78
2020/12/05 12:18:53;;;;;;;28.80;14.70;;;9.60;94.10;;;;;;5072259;28;20111;-78
2020/12/05 12:21:25;;;;;;;23.80;13.43;;;9.60;93.90;;;;;;5073470;28;20037;-78
2020/12/05 12:23:51;;;;;;;21.92;12.27;;;9.60;92.80;;;;;;5072980;28;20075;-78
2020/12/05 12:26:17;;;;;;;24.20;13.20;;;9.60;92.40;;;;;;5072836;28;20436;-78
2020/12/05 12:28:44;;;;;;;25.50;13.23;;;9.70;91.60;;;;;;5072035;28;20021;-78
2020/12/05 12:31:09;;;;;;;25.55;13.50;;;9.70;91.50;;;;;;5072062;28;20047;-78
2020/12/05 12:33:35;;;;;;;22.23;11.30;;;9.70;91.40;;;;;;5071690;28;20469;-78
2020/12/05 12:36:02;;;;;;;22.77;11.60;;;9.80;91.00;;;;;;5073337;28;20017;-78
2020/12/05 12:38:27;;;;;;;23.80;12.40;;;9.80;90.30;;;;;;5072955;28;20043;-78
2020/12/05 12:40:53;;;;;;;18.42;10.98;;;9.80;89.50;;;;;;5073192;28;20428;-79
2020/12/05 12:43:18;;;;;;;23.77;12.90;;;9.80;90.10;;;;;;5073106;28;20474;-78
2020/12/05 12:45:45;;;;;;;20.48;12.13;;;9.80;90.00;;;;;;5073112;28;20105;-78
2020/12/05 12:50:37;;;;;;;25.00;11.82;;;9.80;89.30;;;;;;5073459;28;20036;-78